createdAt,value
2023-05-10T00:00:29.248Z,53.33
2023-05-10T00:04:44.945Z,53.48
2023-05-10T00:08:46.793Z,53.69
2023-05-10T00:12:48.659Z,53.88
2023-05-10T00:16:50.626Z,54.08
2023-05-10T00:20:52.644Z,54.14
2023-05-10T00:24:54.481Z,54.36
2023-05-10T00:28:59.575Z,54.43
2023-05-10T00:33:01.531Z,54.43
2023-05-10T00:37:03.387Z,54.40
2023-05-10T00:41:05.343Z,54.45
2023-05-10T00:45:15.442Z,54.53
2023-05-10T00:49:17.551Z,54.53
2023-05-10T00:53:20.402Z,54.75
2023-05-10T00:57:22.813Z,54.89
2023-05-10T01:01:34.230Z,55.01
2023-05-10T01:05:36.101Z,55.15
2023-05-10T01:09:38.220Z,55.40
2023-05-10T01:13:48.983Z,55.53
2023-05-10T01:17:52.207Z,55.72
2023-05-10T01:21:57.114Z,55.86
2023-05-10T01:26:26.992Z,55.96
2023-05-10T01:30:47.473Z,56.03
2023-05-10T01:35:11.491Z,56.20
2023-05-10T01:39:27.522Z,56.37
2023-05-10T01:43:36.859Z,56.59
2023-05-10T01:47:49.297Z,56.70
2023-05-10T01:52:02.090Z,56.94
2023-05-10T01:56:10.183Z,57.18
2023-05-10T02:00:14.056Z,57.35
2023-05-10T02:04:22.630Z,57.52
2023-05-10T02:08:25.789Z,57.61
2023-05-10T02:12:29.394Z,58.05
2023-05-10T02:16:32.930Z,58.25
2023-05-10T02:20:37.814Z,58.58
2023-05-10T02:24:40.838Z,58.68
2023-05-10T02:28:45.850Z,58.86
2023-05-10T02:32:57.779Z,59.11
2023-05-10T02:37:01.600Z,59.17
2023-05-10T02:41:05.971Z,59.10
2023-05-10T02:45:26.921Z,59.18
2023-05-10T02:49:28.860Z,59.33
2023-05-10T02:53:44.742Z,59.44
2023-05-10T02:58:03.352Z,59.71
2023-05-10T03:02:05.854Z,59.85
2023-05-10T03:06:08.401Z,60.19
2023-05-10T03:10:12.097Z,60.52
2023-05-10T03:14:25.592Z,60.75
2023-05-10T03:18:43.449Z,60.90
2023-05-10T03:22:52.190Z,60.86
2023-05-10T03:27:00.053Z,61.11
2023-05-10T03:31:03.410Z,61.20
2023-05-10T03:35:09.705Z,61.50
2023-05-10T03:39:12.699Z,61.60
2023-05-10T03:43:14.599Z,61.79
2023-05-10T03:47:17.792Z,61.77
2023-05-10T03:51:19.694Z,61.72
2023-05-10T03:55:21.682Z,61.72
2023-05-10T03:59:23.795Z,61.59
2023-05-10T04:03:32.511Z,61.59
2023-05-10T04:07:35.229Z,61.26
2023-05-10T04:11:37.407Z,60.87
2023-05-10T04:15:39.318Z,60.57
2023-05-10T04:19:41.242Z,60.13
2023-05-10T04:23:43.856Z,59.59
2023-05-10T04:27:45.779Z,59.15
2023-05-10T04:31:53.991Z,58.51
2023-05-10T04:35:56.462Z,58.16
2023-05-10T04:40:02.249Z,57.53
2023-05-10T04:44:04.415Z,56.83
2023-05-10T04:48:06.822Z,56.31
2023-05-10T04:52:08.764Z,54.81
2023-05-10T04:56:11.035Z,54.06
2023-05-10T05:00:17.024Z,53.55
2023-05-10T05:04:19.822Z,53.09
2023-05-10T05:08:22.520Z,52.40
2023-05-10T05:12:24.552Z,51.32
2023-05-10T05:16:35.944Z,51.29
2023-05-10T05:20:38.285Z,50.77
2023-05-10T05:24:40.125Z,50.84
2023-05-10T05:28:42.025Z,51.02
2023-05-10T05:32:43.965Z,50.87
2023-05-10T05:36:45.888Z,50.88
2023-05-10T05:40:47.795Z,50.91
2023-05-10T05:44:49.806Z,50.49
2023-05-10T05:48:51.939Z,50.21
2023-05-10T05:52:53.935Z,49.82
2023-05-10T05:56:59.768Z,49.65
2023-05-10T06:01:03.003Z,49.74
2023-05-10T06:05:05.282Z,49.64
2023-05-10T06:09:07.123Z,49.68
2023-05-10T06:13:12.470Z,49.78
2023-05-10T06:17:14.391Z,49.68
2023-05-10T06:21:16.736Z,49.52
2023-05-10T06:25:19.190Z,49.76
2023-05-10T06:29:22.410Z,49.72
2023-05-10T06:33:24.270Z,49.67
2023-05-10T06:37:26.459Z,49.52
2023-05-10T06:41:28.355Z,48.95
2023-05-10T06:45:30.309Z,48.67
2023-05-10T06:49:32.194Z,48.98
2023-05-10T06:53:34.179Z,48.87
2023-05-10T06:57:36.172Z,47.85
2023-05-10T07:01:38.062Z,47.19
2023-05-10T07:05:42.563Z,46.84
2023-05-10T07:09:44.612Z,46.03
2023-05-10T07:13:49.813Z,45.86
2023-05-10T07:17:52.505Z,45.42
2023-05-10T07:21:54.493Z,44.69
2023-05-10T07:25:57.830Z,43.32
2023-05-10T07:29:59.682Z,42.76
2023-05-10T07:34:01.720Z,41.61
2023-05-10T07:38:04.080Z,40.51
2023-05-10T07:42:06.266Z,38.42
2023-05-10T07:46:10.534Z,38.88
2023-05-10T07:50:14.768Z,39.24
2023-05-10T07:54:17.008Z,38.12
2023-05-10T07:58:19.019Z,37.43
2023-05-10T08:02:21.222Z,38.09
2023-05-10T08:06:23.855Z,38.34
2023-05-10T08:10:26.157Z,36.79
2023-05-10T08:14:31.120Z,35.85
2023-05-10T08:18:33.028Z,35.81
2023-05-10T08:22:35.107Z,36.18
2023-05-10T08:26:37.746Z,36.08
2023-05-10T08:30:39.715Z,34.34
2023-05-10T08:34:46.855Z,33.16
2023-05-10T08:38:57.931Z,33.99
2023-05-10T08:43:18.295Z,33.47
2023-05-10T08:47:26.991Z,33.32
2023-05-10T08:51:37.589Z,32.81
2023-05-10T08:55:46.223Z,32.27
2023-05-10T08:59:48.362Z,32.21
2023-05-10T09:03:51.370Z,32.06
2023-05-10T09:07:53.433Z,31.82
2023-05-10T09:11:55.686Z,31.64
2023-05-10T09:16:06.961Z,31.44
2023-05-10T09:20:12.094Z,31.51
2023-05-10T09:24:16.721Z,31.02
2023-05-10T09:28:18.634Z,31.57
2023-05-10T09:32:20.552Z,31.60
2023-05-10T09:36:22.465Z,30.90
2023-05-10T09:40:26.782Z,30.97
2023-05-10T09:44:28.628Z,31.51
2023-05-10T09:48:30.518Z,31.68
2023-05-10T09:52:52.605Z,31.30
2023-05-10T09:56:54.514Z,31.71
2023-05-10T10:00:57.717Z,31.33
2023-05-10T10:05:09.070Z,31.36
2023-05-10T10:09:11.722Z,31.76
2023-05-10T10:13:14.231Z,31.16
2023-05-10T10:17:17.168Z,30.87
2023-05-10T10:21:22.830Z,30.37
2023-05-10T10:25:27.454Z,30.08
2023-05-10T10:30:05.650Z,30.28
2023-05-10T10:34:18.234Z,30.58
2023-05-10T10:38:23.779Z,30.85
2023-05-10T10:42:47.895Z,31.23
2023-05-10T10:47:03.292Z,30.71
2023-05-10T10:51:05.250Z,30.41
2023-05-10T10:55:33.229Z,30.35
2023-05-10T10:59:35.096Z,30.38
2023-05-10T11:03:37.164Z,30.62
2023-05-10T11:07:58.447Z,29.93
2023-05-10T11:12:00.981Z,29.93
2023-05-10T11:16:12.430Z,29.72
2023-05-10T11:20:27.322Z,30.23
2023-05-10T11:24:29.205Z,30.15
2023-05-10T11:28:31.172Z,30.29
2023-05-10T11:32:34.501Z,30.40
2023-05-10T11:36:37.244Z,30.23
2023-05-10T11:40:43.138Z,30.06
2023-05-10T11:44:47.630Z,30.08
2023-05-10T11:48:54.896Z,29.85
2023-05-10T11:52:57.415Z,29.32
2023-05-10T11:57:01.591Z,29.74
2023-05-10T12:01:13.122Z,29.82
2023-05-10T12:05:15.704Z,29.40
2023-05-10T12:09:19.262Z,29.93
2023-05-10T12:13:31.828Z,29.78
2023-05-10T12:17:34.170Z,29.82
2023-05-10T12:21:36.229Z,29.98
2023-05-10T12:25:39.902Z,29.67
2023-05-10T12:29:45.021Z,29.74
2023-05-10T12:33:47.908Z,30.19
2023-05-10T12:37:51.879Z,29.99
2023-05-10T12:41:53.942Z,29.86
2023-05-10T12:45:56.322Z,29.62
2023-05-10T12:49:58.373Z,29.55
2023-05-10T12:54:00.416Z,29.10
2023-05-10T12:58:02.325Z,28.75
2023-05-10T13:02:04.233Z,29.39
2023-05-10T13:06:06.995Z,29.31
2023-05-10T13:10:08.968Z,28.98
2023-05-10T13:14:10.828Z,29.18
2023-05-10T13:18:12.808Z,29.01
2023-05-10T13:22:25.627Z,29.08
2023-05-10T13:26:35.133Z,29.46
2023-05-10T13:30:37.068Z,29.86
2023-05-10T13:34:38.953Z,29.79
2023-05-10T13:38:40.782Z,29.92
2023-05-10T13:42:42.853Z,29.55
2023-05-10T13:46:44.929Z,29.30
2023-05-10T13:50:47.164Z,29.57
2023-05-10T13:54:50.835Z,29.02
2023-05-10T13:58:52.780Z,28.64
2023-05-10T14:02:55.363Z,28.48
2023-05-10T14:06:57.482Z,28.59
2023-05-10T14:10:59.740Z,28.00
2023-05-10T14:15:01.823Z,28.15
2023-05-10T14:19:04.842Z,27.94
2023-05-10T14:23:11.682Z,27.86
2023-05-10T14:27:22.473Z,27.90
2023-05-10T14:31:26.462Z,28.13
2023-05-10T14:35:29.009Z,27.84
2023-05-10T14:39:40.706Z,28.07
2023-05-10T14:43:44.961Z,27.67
2023-05-10T14:47:46.832Z,27.60
2023-05-10T14:51:49.320Z,27.79
2023-05-10T14:55:51.205Z,27.48
2023-05-10T14:59:53.041Z,27.54
2023-05-10T15:03:55.500Z,27.45
2023-05-10T15:07:58.028Z,27.07
2023-05-10T15:12:01.115Z,27.24
2023-05-10T15:16:03.724Z,27.47
2023-05-10T15:20:06.858Z,27.43
2023-05-10T15:24:10.225Z,27.31
2023-05-10T15:28:12.225Z,27.49
2023-05-10T15:32:14.910Z,27.46
2023-05-10T15:36:19.717Z,27.48
2023-05-10T15:40:21.757Z,27.50
2023-05-10T15:44:32.051Z,27.76
2023-05-10T15:48:33.956Z,27.74
2023-05-10T15:52:36.676Z,27.60
2023-05-10T15:56:39.249Z,27.46
2023-05-10T16:00:41.171Z,27.84
2023-05-10T16:04:44.144Z,27.52
2023-05-10T16:08:45.964Z,27.82
2023-05-10T16:12:47.835Z,27.89
2023-05-10T16:16:50.110Z,27.93
2023-05-10T16:20:53.521Z,28.14
2023-05-10T16:24:57.217Z,28.11
2023-05-10T16:29:01.932Z,28.19
2023-05-10T16:33:03.974Z,28.34
2023-05-10T16:37:06.251Z,28.60
2023-05-10T16:41:08.169Z,28.88
2023-05-10T16:45:10.758Z,29.09
2023-05-10T16:49:12.621Z,28.99
2023-05-10T16:53:14.758Z,29.38
2023-05-10T16:57:24.892Z,29.85
2023-05-10T17:01:27.313Z,29.84
2023-05-10T17:05:29.981Z,29.98
2023-05-10T17:09:32.988Z,30.18
2023-05-10T17:13:35.020Z,30.37
2023-05-10T17:17:37.590Z,30.36
2023-05-10T17:21:39.972Z,30.44
2023-05-10T17:25:44.125Z,30.54
2023-05-10T17:29:46.374Z,30.85
2023-05-10T17:33:48.207Z,31.09
2023-05-10T17:37:52.540Z,31.38
2023-05-10T17:41:54.474Z,31.60
2023-05-10T17:46:05.951Z,31.97
2023-05-10T17:50:12.830Z,32.20
2023-05-10T17:54:17.958Z,32.52
2023-05-10T17:58:20.315Z,32.99
2023-05-10T18:02:22.258Z,33.26
2023-05-10T18:06:24.524Z,33.65
2023-05-10T18:10:26.871Z,34.08
2023-05-10T18:14:39.840Z,34.36
2023-05-10T18:18:45.317Z,34.89
2023-05-10T18:22:47.771Z,35.07
2023-05-10T18:26:49.797Z,35.31
2023-05-10T18:30:51.778Z,35.65
2023-05-10T18:34:55.649Z,35.91
2023-05-10T18:39:00.612Z,36.22
2023-05-10T18:43:06.259Z,36.56
2023-05-10T18:47:09.644Z,36.76
2023-05-10T18:51:13.350Z,37.07
2023-05-10T18:55:16.110Z,37.23
2023-05-10T18:59:23.087Z,37.46
2023-05-10T19:03:25.118Z,37.66
2023-05-10T19:07:27.007Z,37.82
2023-05-10T19:11:34.025Z,37.96
2023-05-10T19:15:36.170Z,38.15
2023-05-10T19:19:38.751Z,38.27
2023-05-10T19:23:41.460Z,38.39
2023-05-10T19:27:44.067Z,38.60
2023-05-10T19:31:46.408Z,38.70
2023-05-10T19:35:54.717Z,38.92
2023-05-10T19:39:56.627Z,38.92
2023-05-10T19:43:59.501Z,39.02
2023-05-10T19:48:01.500Z,39.11
2023-05-10T19:52:07.283Z,39.30
2023-05-10T19:56:09.146Z,39.39
2023-05-10T20:00:12.458Z,39.59
2023-05-10T20:04:14.460Z,39.73
2023-05-10T20:08:16.594Z,39.82
2023-05-10T20:12:18.541Z,39.99
2023-05-10T20:16:20.644Z,40.16
2023-05-10T20:20:23.139Z,40.27
2023-05-10T20:24:25.117Z,40.47
2023-05-10T20:28:28.669Z,40.53
2023-05-10T20:32:30.738Z,40.65
2023-05-10T20:36:32.689Z,40.77
2023-05-10T20:40:39.078Z,40.80
2023-05-10T20:44:41.122Z,40.91
2023-05-10T20:48:46.967Z,41.03
2023-05-10T20:52:52.390Z,41.12
2023-05-10T20:56:54.280Z,41.20
2023-05-10T21:00:56.391Z,41.30
2023-05-10T21:05:02.265Z,41.33
2023-05-10T21:09:04.829Z,41.35
2023-05-10T21:13:06.762Z,41.47
2023-05-10T21:17:08.799Z,41.48
2023-05-10T21:21:11.078Z,41.57
2023-05-10T21:25:13.698Z,41.63
2023-05-10T21:29:15.627Z,41.75
2023-05-10T21:33:17.506Z,41.85
2023-05-10T21:37:19.373Z,41.83
2023-05-10T21:41:21.380Z,41.89
2023-05-10T21:45:23.425Z,41.98
2023-05-10T21:49:25.551Z,42.05
2023-05-10T21:53:28.403Z,42.12
2023-05-10T21:57:30.615Z,42.17
2023-05-10T22:01:32.689Z,42.25
2023-05-10T22:05:34.597Z,42.26
2023-05-10T22:09:36.717Z,42.21
2023-05-10T22:13:38.544Z,42.34
2023-05-10T22:17:40.668Z,42.42
2023-05-10T22:21:42.658Z,42.55
2023-05-10T22:25:44.509Z,42.59
2023-05-10T22:29:48.109Z,42.70
2023-05-10T22:33:50.097Z,42.85
2023-05-10T22:37:51.945Z,42.90
2023-05-10T22:41:53.890Z,42.91
2023-05-10T22:45:55.699Z,43.04
2023-05-10T22:49:58.231Z,43.11
2023-05-10T22:54:00.229Z,43.34
2023-05-10T22:58:03.092Z,43.33
2023-05-10T23:02:05.780Z,43.50
2023-05-10T23:06:07.878Z,43.49
2023-05-10T23:10:10.066Z,43.69
2023-05-10T23:14:11.981Z,43.83
2023-05-10T23:18:13.817Z,43.97
2023-05-10T23:22:15.823Z,44.13
2023-05-10T23:26:18.085Z,44.27
2023-05-10T23:30:20.375Z,44.41
2023-05-10T23:34:22.240Z,44.45
2023-05-10T23:38:24.109Z,44.60
2023-05-10T23:42:32.313Z,44.70
2023-05-10T23:46:34.166Z,44.87
2023-05-10T23:50:36.679Z,45.09
2023-05-10T23:54:38.739Z,45.20
2023-05-10T23:58:40.549Z,45.51
